createdAt,value
2019-03-08T00:02:07.049Z,1.10
2019-03-08T00:07:10.471Z,2.10
2019-03-08T00:12:13.977Z,1.40
2019-03-08T00:17:17.417Z,1.57
2019-03-08T00:22:20.847Z,2.00
2019-03-08T00:27:24.256Z,1.67
2019-03-08T00:32:27.690Z,1.87
2019-03-08T00:37:31.134Z,1.80
2019-03-08T00:42:35.079Z,2.30
2019-03-08T00:47:38.667Z,2.47
2019-03-08T00:52:42.092Z,1.63
2019-03-08T00:57:47.070Z,2.37
2019-03-08T01:02:50.530Z,1.70
2019-03-08T01:07:53.950Z,2.67
2019-03-08T01:12:57.373Z,2.03
2019-03-08T01:18:00.887Z,2.90
2019-03-08T01:23:04.607Z,2.63
2019-03-08T01:28:12.458Z,2.80
2019-03-08T01:33:16.541Z,2.43
2019-03-08T01:38:20.782Z,2.60
2019-03-08T01:43:24.231Z,3.40
2019-03-08T01:48:27.842Z,2.73
2019-03-08T01:53:31.314Z,2.70
2019-03-08T01:58:34.751Z,4.27
2019-03-08T02:03:38.394Z,2.60
2019-03-08T02:08:41.894Z,3.10
2019-03-08T02:13:45.439Z,3.20
2019-03-08T02:18:48.865Z,4.17
2019-03-08T02:23:52.452Z,3.53
2019-03-08T02:28:55.969Z,4.40
2019-03-08T02:33:59.416Z,4.90
2019-03-08T02:39:03.017Z,5.13
2019-03-08T02:44:06.536Z,6.30
2019-03-08T02:49:10.040Z,5.57
2019-03-08T02:54:13.459Z,4.70
2019-03-08T02:59:17.071Z,5.80
2019-03-08T03:04:20.521Z,7.23
2019-03-08T03:09:23.940Z,6.27
2019-03-08T03:14:27.406Z,7.03
2019-03-08T03:19:30.827Z,4.80
2019-03-08T03:24:34.266Z,5.03
2019-03-08T03:29:37.700Z,4.97
2019-03-08T03:34:41.207Z,6.40
2019-03-08T03:39:44.654Z,6.67
2019-03-08T03:44:48.094Z,5.37
2019-03-08T03:49:51.515Z,6.93
2019-03-08T03:54:54.959Z,6.30
2019-03-08T03:59:58.390Z,5.63
2019-03-08T04:05:01.817Z,5.30
2019-03-08T04:10:20.454Z,5.27
2019-03-08T04:15:23.886Z,6.00
2019-03-08T04:20:27.319Z,4.93
2019-03-08T04:25:30.783Z,4.87
2019-03-08T04:30:34.230Z,5.17
2019-03-08T04:35:37.665Z,3.67
2019-03-08T04:40:41.150Z,4.03
2019-03-08T04:45:44.580Z,3.07
2019-03-08T04:50:48.060Z,3.33
2019-03-08T04:55:51.554Z,3.43
2019-03-08T05:00:54.979Z,3.90
2019-03-08T05:05:58.434Z,3.43
2019-03-08T05:11:01.829Z,3.57
2019-03-08T05:16:05.270Z,3.73
2019-03-08T05:21:08.695Z,4.77
2019-03-08T05:26:12.186Z,3.80
2019-03-08T05:31:15.856Z,3.13
2019-03-08T05:36:19.308Z,3.53
2019-03-08T05:41:22.743Z,4.00
2019-03-08T05:46:26.154Z,3.10
2019-03-08T05:51:29.589Z,3.57
2019-03-08T05:56:33.026Z,3.57
2019-03-08T06:01:39.599Z,3.20
2019-03-08T06:06:43.310Z,3.67
2019-03-08T06:11:46.749Z,2.40
2019-03-08T06:16:50.200Z,4.03
2019-03-08T06:21:53.655Z,3.60
2019-03-08T06:26:57.063Z,2.97
2019-03-08T06:32:00.683Z,6.10
2019-03-08T06:37:04.107Z,3.57
2019-03-08T06:42:07.621Z,3.47
2019-03-08T06:47:11.055Z,5.53
2019-03-08T06:52:14.479Z,5.33
2019-03-08T06:57:17.919Z,4.63
2019-03-08T07:02:22.114Z,4.40
2019-03-08T07:07:25.566Z,4.00
2019-03-08T07:12:29.107Z,4.30
2019-03-08T07:17:32.638Z,3.70
2019-03-08T07:22:46.925Z,4.97
2019-03-08T07:27:52.016Z,5.07
2019-03-08T07:32:59.526Z,3.33
2019-03-08T07:38:10.553Z,3.90
2019-03-08T07:48:47.783Z,6.80
2019-03-08T07:53:52.871Z,3.47
2019-03-08T07:58:57.931Z,6.10
2019-03-08T08:09:25.477Z,3.73
2019-03-08T08:14:40.008Z,5.13
2019-03-08T08:19:48.042Z,6.63
2019-03-08T08:24:55.792Z,5.50
2019-03-08T08:30:12.624Z,4.23
2019-03-08T08:35:17.707Z,4.77
2019-03-08T08:40:22.820Z,5.23
2019-03-08T08:50:53.122Z,2.73
2019-03-08T08:56:14.239Z,2.93
2019-03-08T09:01:28.159Z,2.43
2019-03-08T09:06:35.802Z,3.73
2019-03-08T09:11:45.884Z,3.67
2019-03-08T09:16:47.714Z,2.27
2019-03-08T09:21:58.671Z,2.73
2019-03-08T09:27:12.542Z,4.37
2019-03-08T09:32:17.604Z,3.30
2019-03-08T09:37:34.661Z,3.60
2019-03-08T09:42:45.480Z,3.17
2019-03-08T09:53:07.141Z,3.47
2019-03-08T09:58:21.025Z,3.83
2019-03-08T10:03:26.102Z,4.40
2019-03-08T10:08:43.120Z,4.20
2019-03-08T10:13:51.277Z,4.63
2019-03-08T10:19:14.575Z,3.00
2019-03-08T10:24:22.390Z,3.77
2019-03-08T10:29:30.162Z,4.87
2019-03-08T10:34:41.110Z,2.13
2019-03-08T10:45:02.412Z,4.37
2019-03-08T10:50:13.108Z,4.30
2019-03-08T10:55:34.442Z,2.73
2019-03-08T11:00:39.538Z,4.00
2019-03-08T11:06:00.731Z,4.40
2019-03-08T11:11:08.491Z,2.93
2019-03-08T11:16:13.961Z,4.27
2019-03-08T11:27:13.177Z,3.60
2019-03-08T11:32:36.268Z,2.27
2019-03-08T11:37:43.794Z,2.03
2019-03-08T11:42:54.959Z,3.37
2019-03-08T11:48:17.115Z,1.47
2019-03-08T11:53:24.849Z,2.17
2019-03-08T11:58:44.833Z,2.07
2019-03-08T12:03:52.784Z,1.77
2019-03-08T12:09:06.359Z,1.97
2019-03-08T12:14:20.732Z,2.53
2019-03-08T12:19:26.120Z,3.43
2019-03-08T12:24:31.213Z,3.87
2019-03-08T12:29:36.277Z,3.33
2019-03-08T12:34:44.230Z,2.17
2019-03-08T12:39:51.862Z,3.40
2019-03-08T12:45:26.666Z,2.10
2019-03-08T12:50:59.352Z,2.90
2019-03-08T13:08:01.633Z,1.67
2019-03-08T13:13:05.317Z,1.67
2019-03-08T13:18:08.815Z,1.80
2019-03-08T13:23:12.271Z,2.50
2019-03-08T13:28:15.761Z,3.33
2019-03-08T13:39:18.339Z,2.03
2019-03-08T13:44:59.889Z,3.87
2019-03-08T13:56:30.600Z,2.67
2019-03-08T14:01:34.154Z,2.70
2019-03-08T14:06:37.611Z,2.67
2019-03-08T14:11:41.069Z,3.37
2019-03-08T14:16:44.458Z,2.70
2019-03-08T14:21:47.899Z,2.53
2019-03-08T14:26:51.322Z,2.53
2019-03-08T14:31:56.568Z,2.07
2019-03-08T14:37:00.005Z,1.80
2019-03-08T14:42:15.669Z,2.13
2019-03-08T14:47:24.458Z,1.80
2019-03-08T14:52:32.170Z,1.33
2019-03-08T14:57:35.531Z,1.40
2019-03-08T15:02:39.205Z,1.63
2019-03-08T15:07:44.172Z,1.80
2019-03-08T15:12:49.484Z,1.00
2019-03-08T15:17:53.513Z,1.50
2019-03-08T15:34:10.409Z,1.40
2019-03-08T15:39:13.821Z,4.27
2019-03-08T15:44:17.258Z,3.03
2019-03-08T15:49:20.695Z,2.00
2019-03-08T15:54:24.161Z,3.47
2019-03-08T15:59:27.784Z,2.80
2019-03-08T16:04:31.244Z,1.67
2019-03-08T16:09:36.309Z,1.57
2019-03-08T16:14:39.822Z,2.53
2019-03-08T16:19:43.250Z,1.97
2019-03-08T16:24:46.693Z,2.17
2019-03-08T16:29:50.244Z,2.17
2019-03-08T16:34:53.439Z,2.13
2019-03-08T16:45:33.437Z,2.00
2019-03-08T16:50:50.409Z,2.10
2019-03-08T16:56:03.113Z,3.10
2019-03-08T17:01:10.683Z,2.93
2019-03-08T17:06:31.079Z,3.17
2019-03-08T17:11:36.155Z,2.90
2019-03-08T17:16:50.247Z,3.23
2019-03-08T17:22:13.598Z,2.60
2019-03-08T17:27:33.403Z,3.13
2019-03-08T17:32:38.514Z,3.07
2019-03-08T17:37:49.543Z,2.77
2019-03-08T17:42:54.618Z,6.30
2019-03-08T17:48:02.389Z,4.10
2019-03-08T17:53:07.452Z,3.73
2019-03-08T17:58:30.691Z,3.40
2019-03-08T18:03:38.809Z,5.40
2019-03-08T18:08:52.938Z,4.30
2019-03-08T18:13:58.009Z,4.30
2019-03-08T18:19:03.076Z,4.90
2019-03-08T18:24:10.985Z,5.20
2019-03-08T18:29:17.566Z,5.07
2019-03-08T18:34:25.216Z,4.73
2019-03-08T18:39:42.173Z,4.50
2019-03-08T18:44:50.833Z,5.23
2019-03-08T18:49:58.671Z,6.50
2019-03-08T18:55:22.506Z,6.50
2019-03-08T19:22:43.297Z,6.00
2019-03-08T19:33:54.893Z,6.33
2019-03-08T19:39:15.075Z,5.17
2019-03-08T19:44:31.920Z,6.13
2019-03-08T19:49:53.929Z,6.53
2019-03-08T19:55:02.695Z,6.27
2019-03-08T20:00:25.620Z,6.40
2019-03-08T20:05:46.674Z,5.60
2019-03-08T20:27:54.269Z,5.80
2019-03-08T20:33:10.481Z,3.80
2019-03-08T20:38:33.733Z,3.07
2019-03-08T20:43:41.547Z,2.93
2019-03-08T20:48:45.025Z,2.80
2019-03-08T20:53:48.834Z,3.00
2019-03-08T20:58:52.359Z,2.97
2019-03-08T21:03:57.941Z,3.80
2019-03-08T21:09:01.560Z,3.27
2019-03-08T21:14:05.378Z,15.67
2019-03-08T21:19:08.824Z,5.97
2019-03-08T21:24:15.299Z,3.50
2019-03-08T21:29:20.305Z,3.60
2019-03-08T21:34:23.725Z,4.30
2019-03-08T21:39:27.173Z,5.03
2019-03-08T21:44:30.606Z,6.80
2019-03-08T21:49:34.113Z,7.10
2019-03-08T21:54:38.551Z,5.67
2019-03-08T21:59:41.961Z,7.13
2019-03-08T22:04:47.059Z,8.10
2019-03-08T22:09:52.390Z,7.57
2019-03-08T22:14:57.655Z,6.57
2019-03-08T22:20:04.722Z,7.00
2019-03-08T22:25:08.921Z,7.10
2019-03-08T22:30:17.632Z,6.33
2019-03-08T22:35:21.449Z,5.83
2019-03-08T22:40:25.170Z,6.27
2019-03-08T22:45:28.731Z,5.63
2019-03-08T22:50:33.213Z,5.20
2019-03-08T22:55:36.567Z,5.30
2019-03-08T23:00:53.971Z,4.60
2019-03-08T23:05:57.419Z,4.40
2019-03-08T23:11:01.076Z,5.10
2019-03-08T23:16:04.521Z,4.73
2019-03-08T23:21:07.950Z,5.47
2019-03-08T23:26:11.416Z,4.13
2019-03-08T23:31:25.112Z,3.50
2019-03-08T23:36:30.212Z,4.47
2019-03-08T23:41:33.628Z,4.20
2019-03-08T23:46:37.073Z,4.43
2019-03-08T23:51:40.516Z,3.87
2019-03-08T23:56:43.945Z,4.20
